Meskill, Texas
Current Conditions -  °F | °C
As of 2:52 PM on Saturday 25 Oct 2014 (Local Time) from KGLS Reporting Station
Clear Clear  
Wind Chill: 77°   Ceiling: Unl
Heat Index: 79°   Visibility: 10mi
Dew Point: 58°   Wind: 9mph
Humidity: 52%   Direction: 140°SE
Pressure: 30.13"   Gusts: NA
Location:  29.3796°N, 94.9168°W
Report Text: KGLS 251952Z 14008KT 10SM CLR 25/14 A3013 RMK AO2 SLP201 T02500144
Loading
Personal Weather Stations






























Interactive Weather Map
Tropical Storm Tracking
New forecast layout! Learn more

10-Day Weather Forecast

Advertisements
Track Severe Weather on mobile